sensor_id;sensor_type;location;lat;lon;timestamp;noise_LAeq;noise_LA_min;noise_LA_max;noise_LA01;noise_LA95
73206;Laerm;61415;55.702;37.460;2023-05-02T00:00:02;61.76;55.75;65.98;;
73206;Laerm;61415;55.702;37.460;2023-05-02T00:00:33;58.65;54.81;63.63;;
73206;Laerm;61415;55.702;37.460;2023-05-02T00:01:06;58.64;54.65;63.57;;
73206;Laerm;61415;55.702;37.460;2023-05-02T00:01:37;61.24;57.69;64.56;;
73206;Laerm;61415;55.702;37.460;2023-05-02T00:02:08;61.08;58.10;64.11;;
73206;Laerm;61415;55.702;37.460;2023-05-02T00:02:38;62.04;56.65;66.45;;
73206;Laerm;61415;55.702;37.460;2023-05-02T00:03:09;64.01;59.18;67.93;;
73206;Laerm;61415;55.702;37.460;2023-05-02T00:03:41;61.60;57.84;65.99;;
73206;Laerm;61415;55.702;37.460;2023-05-02T00:04:13;64.72;59.82;68.29;;
73206;Laerm;61415;55.702;37.460;2023-05-02T00:04:43;64.97;57.09;72.38;;
73206;Laerm;61415;55.702;37.460;2023-05-02T00:05:14;65.03;60.12;71.59;;
73206;Laerm;61415;55.702;37.460;2023-05-02T00:05:45;62.42;58.90;65.26;;
73206;Laerm;61415;55.702;37.460;2023-05-02T00:06:16;68.01;61.16;72.60;;
73206;Laerm;61415;55.702;37.460;2023-05-02T00:06:47;64.99;60.59;69.37;;
73206;Laerm;61415;55.702;37.460;2023-05-02T00:07:17;63.04;58.98;67.66;;
73206;Laerm;61415;55.702;37.460;2023-05-02T00:07:49;65.00;61.03;68.89;;
73206;Laerm;61415;55.702;37.460;2023-05-02T00:08:20;66.45;57.20;72.07;;
73206;Laerm;61415;55.702;37.460;2023-05-02T00:08:51;62.81;58.41;65.29;;
73206;Laerm;61415;55.702;37.460;2023-05-02T00:09:22;58.67;53.72;62.34;;
73206;Laerm;61415;55.702;37.460;2023-05-02T00:09:52;62.32;54.79;70.71;;
73206;Laerm;61415;55.702;37.460;2023-05-02T00:10:23;59.79;56.55;63.80;;
73206;Laerm;61415;55.702;37.460;2023-05-02T00:10:54;63.08;58.13;66.68;;
73206;Laerm;61415;55.702;37.460;2023-05-02T00:11:25;62.86;56.10;67.44;;
73206;Laerm;61415;55.702;37.460;2023-05-02T00:11:55;61.95;55.68;66.81;;
73206;Laerm;61415;55.702;37.460;2023-05-02T00:12:27;59.92;56.61;62.82;;
73206;Laerm;61415;55.702;37.460;2023-05-02T00:12:57;59.33;55.10;64.57;;
73206;Laerm;61415;55.702;37.460;2023-05-02T00:13:28;60.65;56.92;63.91;;
73206;Laerm;61415;55.702;37.460;2023-05-02T00:13:59;62.76;58.58;65.96;;
73206;Laerm;61415;55.702;37.460;2023-05-02T00:14:30;60.35;55.54;65.74;;
73206;Laerm;61415;55.702;37.460;2023-05-02T00:15:01;62.00;57.76;65.20;;
73206;Laerm;61415;55.702;37.460;2023-05-02T00:15:31;59.65;56.17;63.22;;
73206;Laerm;61415;55.702;37.460;2023-05-02T00:16:02;60.60;55.38;64.38;;
73206;Laerm;61415;55.702;37.460;2023-05-02T00:16:33;60.33;55.13;65.84;;
73206;Laerm;61415;55.702;37.460;2023-05-02T00:17:04;63.29;58.58;66.76;;
73206;Laerm;61415;55.702;37.460;2023-05-02T00:17:35;59.20;56.12;63.38;;
73206;Laerm;61415;55.702;37.460;2023-05-02T00:18:06;62.65;57.34;66.64;;
73206;Laerm;61415;55.702;37.460;2023-05-02T00:18:37;60.30;56.94;64.17;;
73206;Laerm;61415;55.702;37.460;2023-05-02T00:19:07;65.77;59.19;70.60;;
73206;Laerm;61415;55.702;37.460;2023-05-02T00:19:38;64.09;60.37;66.73;;
73206;Laerm;61415;55.702;37.460;2023-05-02T00:20:09;60.39;55.69;68.82;;
73206;Laerm;61415;55.702;37.460;2023-05-02T00:20:41;60.96;57.78;64.33;;
73206;Laerm;61415;55.702;37.460;2023-05-02T00:21:12;61.43;57.84;65.87;;
73206;Laerm;61415;55.702;37.460;2023-05-02T00:21:46;60.70;55.49;65.11;;
73206;Laerm;61415;55.702;37.460;2023-05-02T00:22:16;62.05;55.86;66.84;;
73206;Laerm;61415;55.702;37.460;2023-05-02T00:22:47;59.61;56.73;64.15;;
73206;Laerm;61415;55.702;37.460;2023-05-02T00:23:18;70.36;60.28;81.74;;
73206;Laerm;61415;55.702;37.460;2023-05-02T00:23:52;60.11;56.91;64.12;;
73206;Laerm;61415;55.702;37.460;2023-05-02T00:24:23;69.76;58.40;77.55;;
73206;Laerm;61415;55.702;37.460;2023-05-02T00:24:56;62.66;59.19;65.98;;
73206;Laerm;61415;55.702;37.460;2023-05-02T00:25:27;62.69;57.37;66.93;;
73206;Laerm;61415;55.702;37.460;2023-05-02T00:25:58;61.43;57.61;66.50;;
73206;Laerm;61415;55.702;37.460;2023-05-02T00:26:29;63.29;57.10;67.64;;
73206;Laerm;61415;55.702;37.460;2023-05-02T00:27:00;63.12;57.79;69.55;;
73206;Laerm;61415;55.702;37.460;2023-05-02T00:27:31;58.76;55.62;63.82;;
73206;Laerm;61415;55.702;37.460;2023-05-02T00:28:02;57.06;54.23;60.84;;
73206;Laerm;61415;55.702;37.460;2023-05-02T00:28:33;57.51;53.85;60.71;;
73206;Laerm;61415;55.702;37.460;2023-05-02T00:29:04;57.05;52.93;62.32;;
73206;Laerm;61415;55.702;37.460;2023-05-02T00:29:35;59.32;54.56;67.23;;
73206;Laerm;61415;55.702;37.460;2023-05-02T00:30:06;61.62;56.22;66.02;;
73206;Laerm;61415;55.702;37.460;2023-05-02T00:30:41;59.60;53.93;65.96;;
73206;Laerm;61415;55.702;37.460;2023-05-02T00:31:11;58.41;52.18;64.60;;
73206;Laerm;61415;55.702;37.460;2023-05-02T00:31:42;64.26;53.74;74.44;;
73206;Laerm;61415;55.702;37.460;2023-05-02T00:32:13;64.08;56.55;70.33;;
73206;Laerm;61415;55.702;37.460;2023-05-02T00:32:44;60.65;56.71;64.19;;
73206;Laerm;61415;55.702;37.460;2023-05-02T00:33:15;63.57;59.36;67.12;;
73206;Laerm;61415;55.702;37.460;2023-05-02T00:33:46;64.46;60.37;68.00;;
73206;Laerm;61415;55.702;37.460;2023-05-02T00:34:17;62.34;54.99;69.08;;
73206;Laerm;61415;55.702;37.460;2023-05-02T00:34:47;59.05;54.77;62.81;;
73206;Laerm;61415;55.702;37.460;2023-05-02T00:35:18;62.74;55.87;67.48;;
73206;Laerm;61415;55.702;37.460;2023-05-02T00:35:49;59.52;54.37;64.68;;
73206;Laerm;61415;55.702;37.460;2023-05-02T00:36:20;58.34;54.82;63.43;;
73206;Laerm;61415;55.702;37.460;2023-05-02T00:36:51;59.98;54.37;65.40;;
73206;Laerm;61415;55.702;37.460;2023-05-02T00:37:24;58.68;54.20;64.31;;
73206;Laerm;61415;55.702;37.460;2023-05-02T00:37:55;60.54;56.46;63.93;;
73206;Laerm;61415;55.702;37.460;2023-05-02T00:38:26;63.81;55.68;68.00;;
73206;Laerm;61415;55.702;37.460;2023-05-02T00:38:57;62.59;58.28;67.30;;
73206;Laerm;61415;55.702;37.460;2023-05-02T00:39:28;60.85;57.57;66.53;;
73206;Laerm;61415;55.702;37.460;2023-05-02T00:39:58;62.34;56.68;67.10;;
73206;Laerm;61415;55.702;37.460;2023-05-02T00:40:29;60.29;57.23;62.78;;
73206;Laerm;61415;55.702;37.460;2023-05-02T00:41:00;64.06;58.39;70.55;;
73206;Laerm;61415;55.702;37.460;2023-05-02T00:41:31;62.56;56.88;68.33;;
73206;Laerm;61415;55.702;37.460;2023-05-02T00:42:02;63.90;58.47;69.29;;
73206;Laerm;61415;55.702;37.460;2023-05-02T00:42:32;64.49;60.68;68.27;;
73206;Laerm;61415;55.702;37.460;2023-05-02T00:43:05;65.01;58.00;71.00;;
73206;Laerm;61415;55.702;37.460;2023-05-02T00:43:36;64.42;55.68;71.92;;
73206;Laerm;61415;55.702;37.460;2023-05-02T00:44:08;62.08;57.66;67.20;;
73206;Laerm;61415;55.702;37.460;2023-05-02T00:44:39;65.08;61.43;69.00;;
73206;Laerm;61415;55.702;37.460;2023-05-02T00:45:10;63.24;59.47;66.10;;
73206;Laerm;61415;55.702;37.460;2023-05-02T00:45:42;65.81;59.33;74.79;;
73206;Laerm;61415;55.702;37.460;2023-05-02T00:46:13;59.91;56.91;64.55;;
73206;Laerm;61415;55.702;37.460;2023-05-02T00:46:44;60.60;56.25;64.00;;
73206;Laerm;61415;55.702;37.460;2023-05-02T00:47:15;58.62;53.27;65.44;;
73206;Laerm;61415;55.702;37.460;2023-05-02T00:47:46;61.64;56.91;65.75;;
73206;Laerm;61415;55.702;37.460;2023-05-02T00:48:17;63.21;58.13;67.31;;
73206;Laerm;61415;55.702;37.460;2023-05-02T00:48:50;59.77;56.63;63.28;;
73206;Laerm;61415;55.702;37.460;2023-05-02T00:49:20;60.98;56.10;65.78;;
73206;Laerm;61415;55.702;37.460;2023-05-02T00:49:51;63.31;58.50;66.92;;
73206;Laerm;61415;55.702;37.460;2023-05-02T00:50:24;65.97;60.75;72.17;;
73206;Laerm;61415;55.702;37.460;2023-05-02T00:50:56;64.74;59.45;68.21;;
73206;Laerm;61415;55.702;37.460;2023-05-02T00:51:27;64.87;60.62;71.40;;
73206;Laerm;61415;55.702;37.460;2023-05-02T00:51:58;65.66;60.78;69.70;;
73206;Laerm;61415;55.702;37.460;2023-05-02T00:52:29;61.04;55.70;65.68;;
73206;Laerm;61415;55.702;37.460;2023-05-02T00:53:00;60.39;55.53;65.07;;
73206;Laerm;61415;55.702;37.460;2023-05-02T00:53:32;64.23;58.18;68.17;;
73206;Laerm;61415;55.702;37.460;2023-05-02T00:54:03;62.54;56.99;66.10;;
73206;Laerm;61415;55.702;37.460;2023-05-02T00:54:35;63.04;59.73;66.76;;
73206;Laerm;61415;55.702;37.460;2023-05-02T00:55:06;62.28;56.41;65.97;;
73206;Laerm;61415;55.702;37.460;2023-05-02T00:55:37;62.96;58.34;67.15;;
73206;Laerm;61415;55.702;37.460;2023-05-02T00:56:08;66.18;58.89;71.41;;
73206;Laerm;61415;55.702;37.460;2023-05-02T00:56:39;62.54;56.60;68.75;;
73206;Laerm;61415;55.702;37.460;2023-05-02T00:57:10;61.33;56.82;65.06;;
73206;Laerm;61415;55.702;37.460;2023-05-02T00:57:40;60.21;56.32;66.21;;
73206;Laerm;61415;55.702;37.460;2023-05-02T00:58:13;60.52;56.35;63.70;;
73206;Laerm;61415;55.702;37.460;2023-05-02T00:58:43;62.41;57.68;65.69;;
73206;Laerm;61415;55.702;37.460;2023-05-02T00:59:15;59.28;55.57;62.90;;
73206;Laerm;61415;55.702;37.460;2023-05-02T00:59:46;58.36;54.96;64.71;;
73206;Laerm;61415;55.702;37.460;2023-05-02T01:00:17;62.89;55.18;70.73;;
73206;Laerm;61415;55.702;37.460;2023-05-02T01:02:31;65.07;62.08;69.53;;
73206;Laerm;61415;55.702;37.460;2023-05-02T01:03:09;64.18;57.10;73.23;;
73206;Laerm;61415;55.702;37.460;2023-05-02T01:05:17;59.71;54.50;65.25;;
73206;Laerm;61415;55.702;37.460;2023-05-02T01:05:19;59.40;55.05;64.02;;
73206;Laerm;61415;55.702;37.460;2023-05-02T01:10:16;60.40;54.65;65.03;;
73206;Laerm;61415;55.702;37.460;2023-05-02T01:10:51;58.02;54.73;66.55;;
73206;Laerm;61415;55.702;37.460;2023-05-02T01:11:38;61.27;55.41;68.38;;
73206;Laerm;61415;55.702;37.460;2023-05-02T01:12:46;61.42;56.53;66.12;;
73206;Laerm;61415;55.702;37.460;2023-05-02T01:13:20;61.52;56.54;67.24;;
73206;Laerm;61415;55.702;37.460;2023-05-02T01:13:52;62.62;58.49;65.71;;
73206;Laerm;61415;55.702;37.460;2023-05-02T01:14:25;63.40;58.97;67.24;;
73206;Laerm;61415;55.702;37.460;2023-05-02T01:14:59;65.52;56.44;75.44;;
73206;Laerm;61415;55.702;37.460;2023-05-02T01:15:31;60.44;56.87;65.80;;
73206;Laerm;61415;55.702;37.460;2023-05-02T01:16:03;65.95;60.91;68.88;;
73206;Laerm;61415;55.702;37.460;2023-05-02T01:16:35;65.98;60.80;70.72;;
73206;Laerm;61415;55.702;37.460;2023-05-02T01:17:10;62.11;56.47;65.99;;
73206;Laerm;61415;55.702;37.460;2023-05-02T01:17:43;65.10;60.10;68.57;;
73206;Laerm;61415;55.702;37.460;2023-05-02T01:18:15;64.81;62.35;68.30;;
73206;Laerm;61415;55.702;37.460;2023-05-02T01:18:47;62.66;59.25;66.25;;
73206;Laerm;61415;55.702;37.460;2023-05-02T01:19:29;61.09;57.54;64.77;;
73206;Laerm;61415;55.702;37.460;2023-05-02T01:20:02;61.65;57.47;65.08;;
73206;Laerm;61415;55.702;37.460;2023-05-02T01:20:35;60.70;56.78;63.29;;
73206;Laerm;61415;55.702;37.460;2023-05-02T01:21:08;63.99;58.42;68.86;;
73206;Laerm;61415;55.702;37.460;2023-05-02T01:21:39;62.81;59.89;66.20;;
73206;Laerm;61415;55.702;37.460;2023-05-02T01:22:11;65.78;61.79;70.37;;
73206;Laerm;61415;55.702;37.460;2023-05-02T01:22:43;67.50;58.51;74.01;;
73206;Laerm;61415;55.702;37.460;2023-05-02T01:23:16;62.20;57.32;66.92;;
73206;Laerm;61415;55.702;37.460;2023-05-02T01:24:11;61.67;56.62;65.90;;
73206;Laerm;61415;55.702;37.460;2023-05-02T01:27:27;60.19;55.27;65.31;;
73206;Laerm;61415;55.702;37.460;2023-05-02T01:28:56;63.32;59.42;68.80;;
73206;Laerm;61415;55.702;37.460;2023-05-02T01:29:28;62.89;57.20;68.74;;
73206;Laerm;61415;55.702;37.460;2023-05-02T01:30:00;62.48;58.38;67.22;;
73206;Laerm;61415;55.702;37.460;2023-05-02T01:30:31;61.03;57.46;64.24;;
73206;Laerm;61415;55.702;37.460;2023-05-02T01:31:03;58.23;55.13;61.15;;
73206;Laerm;61415;55.702;37.460;2023-05-02T01:31:38;61.33;57.76;65.13;;
73206;Laerm;61415;55.702;37.460;2023-05-02T01:32:11;61.88;57.04;67.14;;
73206;Laerm;61415;55.702;37.460;2023-05-02T01:32:45;61.47;55.82;67.84;;
73206;Laerm;61415;55.702;37.460;2023-05-02T01:33:16;61.03;56.67;64.02;;
73206;Laerm;61415;55.702;37.460;2023-05-02T01:33:48;61.07;57.11;65.05;;
73206;Laerm;61415;55.702;37.460;2023-05-02T01:34:21;63.21;58.67;66.89;;
73206;Laerm;61415;55.702;37.460;2023-05-02T01:34:52;63.73;60.39;68.11;;
73206;Laerm;61415;55.702;37.460;2023-05-02T01:35:24;61.40;56.56;66.61;;
73206;Laerm;61415;55.702;37.460;2023-05-02T01:35:55;60.41;56.83;63.62;;
73206;Laerm;61415;55.702;37.460;2023-05-02T01:36:28;59.11;56.13;62.67;;
73206;Laerm;61415;55.702;37.460;2023-05-02T01:36:59;59.47;55.83;62.71;;
73206;Laerm;61415;55.702;37.460;2023-05-02T01:37:33;61.49;56.69;68.01;;
73206;Laerm;61415;55.702;37.460;2023-05-02T01:38:06;59.77;57.39;62.37;;
73206;Laerm;61415;55.702;37.460;2023-05-02T01:38:37;60.71;57.41;64.15;;
73206;Laerm;61415;55.702;37.460;2023-05-02T01:39:08;64.44;59.59;68.33;;
73206;Laerm;61415;55.702;37.460;2023-05-02T01:39:40;62.28;57.76;67.19;;
73206;Laerm;61415;55.702;37.460;2023-05-02T01:40:12;63.01;56.42;68.71;;
73206;Laerm;61415;55.702;37.460;2023-05-02T01:40:45;62.21;57.70;66.43;;
73206;Laerm;61415;55.702;37.460;2023-05-02T01:41:17;61.17;55.42;66.21;;
73206;Laerm;61415;55.702;37.460;2023-05-02T01:41:49;60.57;55.41;64.34;;
73206;Laerm;61415;55.702;37.460;2023-05-02T01:42:24;63.26;56.46;71.91;;
73206;Laerm;61415;55.702;37.460;2023-05-02T01:42:55;62.43;57.44;65.54;;
73206;Laerm;61415;55.702;37.460;2023-05-02T01:43:27;62.41;56.98;67.41;;
73206;Laerm;61415;55.702;37.460;2023-05-02T01:44:00;60.25;56.67;65.03;;
73206;Laerm;61415;55.702;37.460;2023-05-02T01:44:31;61.34;56.68;64.90;;
73206;Laerm;61415;55.702;37.460;2023-05-02T01:45:04;62.01;59.26;64.93;;
73206;Laerm;61415;55.702;37.460;2023-05-02T01:45:35;64.25;58.81;71.50;;
73206;Laerm;61415;55.702;37.460;2023-05-02T01:46:08;63.78;56.88;68.82;;
73206;Laerm;61415;55.702;37.460;2023-05-02T01:46:40;60.74;56.06;65.02;;
73206;Laerm;61415;55.702;37.460;2023-05-02T01:47:13;60.59;57.36;63.61;;
73206;Laerm;61415;55.702;37.460;2023-05-02T01:47:44;58.55;54.94;63.78;;
73206;Laerm;61415;55.702;37.460;2023-05-02T01:48:15;61.99;57.07;65.13;;
73206;Laerm;61415;55.702;37.460;2023-05-02T01:48:48;62.02;58.45;65.49;;
73206;Laerm;61415;55.702;37.460;2023-05-02T01:49:22;62.12;59.44;67.74;;
73206;Laerm;61415;55.702;37.460;2023-05-02T01:49:53;65.21;61.54;68.75;;
73206;Laerm;61415;55.702;37.460;2023-05-02T01:50:25;66.84;62.12;72.78;;
73206;Laerm;61415;55.702;37.460;2023-05-02T01:50:56;70.35;61.76;82.11;;
73206;Laerm;61415;55.702;37.460;2023-05-02T01:51:29;65.13;61.33;70.04;;
73206;Laerm;61415;55.702;37.460;2023-05-02T01:52:03;61.99;58.13;69.47;;
73206;Laerm;61415;55.702;37.460;2023-05-02T01:52:35;59.58;55.94;65.24;;
73206;Laerm;61415;55.702;37.460;2023-05-02T01:53:06;59.39;55.45;64.13;;
73206;Laerm;61415;55.702;37.460;2023-05-02T01:53:38;60.19;56.78;63.25;;
73206;Laerm;61415;55.702;37.460;2023-05-02T01:54:09;60.29;57.71;62.36;;
73206;Laerm;61415;55.702;37.460;2023-05-02T01:54:42;61.15;56.93;66.24;;
73206;Laerm;61415;55.702;37.460;2023-05-02T01:55:14;63.76;60.42;67.54;;
73206;Laerm;61415;55.702;37.460;2023-05-02T01:55:46;63.47;60.02;69.39;;
73206;Laerm;61415;55.702;37.460;2023-05-02T01:56:18;64.33;57.18;69.74;;
73206;Laerm;61415;55.702;37.460;2023-05-02T01:56:50;59.43;56.67;63.53;;
73206;Laerm;61415;55.702;37.460;2023-05-02T01:57:21;60.64;57.02;63.97;;
73206;Laerm;61415;55.702;37.460;2023-05-02T01:57:52;61.90;57.41;66.46;;
73206;Laerm;61415;55.702;37.460;2023-05-02T01:58:24;59.92;55.30;64.69;;
73206;Laerm;61415;55.702;37.460;2023-05-02T01:58:56;63.70;58.85;67.24;;
73206;Laerm;61415;55.702;37.460;2023-05-02T01:59:28;63.44;58.11;67.73;;
73206;Laerm;61415;55.702;37.460;2023-05-02T01:59:59;61.95;57.68;65.59;;
73206;Laerm;61415;55.702;37.460;2023-05-02T02:00:31;65.13;62.71;67.70;;
73206;Laerm;61415;55.702;37.460;2023-05-02T02:01:02;62.68;57.95;65.32;;
73206;Laerm;61415;55.702;37.460;2023-05-02T02:01:34;62.98;58.74;66.43;;
73206;Laerm;61415;55.702;37.460;2023-05-02T02:02:05;64.90;58.94;68.64;;
73206;Laerm;61415;55.702;37.460;2023-05-02T02:02:41;64.74;60.85;73.57;;
73206;Laerm;61415;55.702;37.460;2023-05-02T02:03:13;59.34;56.53;63.42;;
73206;Laerm;61415;55.702;37.460;2023-05-02T02:03:44;62.59;56.44;67.08;;
73206;Laerm;61415;55.702;37.460;2023-05-02T02:04:16;65.58;59.84;70.30;;
73206;Laerm;61415;55.702;37.460;2023-05-02T02:04:48;62.20;57.71;66.94;;
73206;Laerm;61415;55.702;37.460;2023-05-02T02:05:20;66.55;58.95;75.29;;
73206;Laerm;61415;55.702;37.460;2023-05-02T02:05:51;63.24;60.20;65.92;;
73206;Laerm;61415;55.702;37.460;2023-05-02T02:06:24;63.79;60.63;67.41;;
73206;Laerm;61415;55.702;37.460;2023-05-02T02:06:57;63.38;59.51;66.85;;
73206;Laerm;61415;55.702;37.460;2023-05-02T02:07:30;62.01;58.19;64.90;;
73206;Laerm;61415;55.702;37.460;2023-05-02T02:08:01;62.39;59.08;65.99;;
73206;Laerm;61415;55.702;37.460;2023-05-02T02:08:32;65.18;58.34;71.21;;
73206;Laerm;61415;55.702;37.460;2023-05-02T02:09:03;65.09;60.41;68.64;;
73206;Laerm;61415;55.702;37.460;2023-05-02T02:09:33;65.29;62.19;68.48;;
73206;Laerm;61415;55.702;37.460;2023-05-02T02:10:05;66.41;60.73;71.34;;
73206;Laerm;61415;55.702;37.460;2023-05-02T02:10:39;64.77;61.15;67.75;;
73206;Laerm;61415;55.702;37.460;2023-05-02T02:11:10;63.86;60.55;67.49;;
73206;Laerm;61415;55.702;37.460;2023-05-02T02:11:43;63.74;59.83;67.18;;
73206;Laerm;61415;55.702;37.460;2023-05-02T02:13:00;65.53;62.32;68.31;;
73206;Laerm;61415;55.702;37.460;2023-05-02T02:13:34;65.03;61.63;68.53;;
73206;Laerm;61415;55.702;37.460;2023-05-02T02:14:08;63.80;59.77;68.26;;
73206;Laerm;61415;55.702;37.460;2023-05-02T02:14:42;67.76;60.28;71.79;;
73206;Laerm;61415;55.702;37.460;2023-05-02T02:15:17;65.39;59.07;69.38;;
73206;Laerm;61415;55.702;37.460;2023-05-02T02:15:49;60.29;56.39;66.93;;
73206;Laerm;61415;55.702;37.460;2023-05-02T02:16:23;65.43;59.58;70.82;;
73206;Laerm;61415;55.702;37.460;2023-05-02T02:16:55;64.53;58.98;69.32;;
73206;Laerm;61415;55.702;37.460;2023-05-02T02:17:37;63.65;59.62;78.62;;
73206;Laerm;61415;55.702;37.460;2023-05-02T02:18:10;63.74;58.97;68.59;;
73206;Laerm;61415;55.702;37.460;2023-05-02T02:18:41;63.73;58.46;66.93;;
73206;Laerm;61415;55.702;37.460;2023-05-02T02:19:14;65.12;61.49;68.68;;
73206;Laerm;61415;55.702;37.460;2023-05-02T02:19:44;66.90;60.41;70.81;;
73206;Laerm;61415;55.702;37.460;2023-05-02T02:20:15;65.26;62.15;68.84;;
73206;Laerm;61415;55.702;37.460;2023-05-02T02:20:47;64.22;59.14;70.83;;
73206;Laerm;61415;55.702;37.460;2023-05-02T02:21:19;61.29;56.44;66.81;;
73206;Laerm;61415;55.702;37.460;2023-05-02T02:21:51;63.11;59.01;68.26;;
73206;Laerm;61415;55.702;37.460;2023-05-02T02:22:25;65.51;61.48;69.17;;
73206;Laerm;61415;55.702;37.460;2023-05-02T02:22:57;64.27;60.46;67.89;;
73206;Laerm;61415;55.702;37.460;2023-05-02T02:23:30;63.76;59.32;67.86;;
73206;Laerm;61415;55.702;37.460;2023-05-02T02:24:03;67.07;61.40;71.61;;
73206;Laerm;61415;55.702;37.460;2023-05-02T02:24:35;63.60;58.02;68.36;;
73206;Laerm;61415;55.702;37.460;2023-05-02T02:25:11;65.30;59.16;69.51;;
73206;Laerm;61415;55.702;37.460;2023-05-02T02:25:42;65.45;59.99;68.96;;
73206;Laerm;61415;55.702;37.460;2023-05-02T02:26:13;61.91;58.33;65.14;;
73206;Laerm;61415;55.702;37.460;2023-05-02T02:26:46;65.25;61.36;69.01;;
73206;Laerm;61415;55.702;37.460;2023-05-02T02:27:17;67.48;61.19;71.47;;
73206;Laerm;61415;55.702;37.460;2023-05-02T02:27:48;66.19;60.29;72.44;;
73206;Laerm;61415;55.702;37.460;2023-05-02T02:28:19;63.60;58.79;66.91;;
73206;Laerm;61415;55.702;37.460;2023-05-02T02:28:51;63.15;59.56;65.65;;
73206;Laerm;61415;55.702;37.460;2023-05-02T02:29:21;63.88;60.16;67.46;;
73206;Laerm;61415;55.702;37.460;2023-05-02T02:29:52;64.97;60.79;68.70;;
73206;Laerm;61415;55.702;37.460;2023-05-02T02:30:23;66.16;62.76;69.72;;
73206;Laerm;61415;55.702;37.460;2023-05-02T02:30:54;63.61;60.07;67.11;;
73206;Laerm;61415;55.702;37.460;2023-05-02T02:31:34;65.20;60.52;68.74;;
73206;Laerm;61415;55.702;37.460;2023-05-02T02:32:05;64.19;61.10;67.69;;
73206;Laerm;61415;55.702;37.460;2023-05-02T02:32:36;60.50;56.46;64.97;;
73206;Laerm;61415;55.702;37.460;2023-05-02T02:33:06;60.19;56.79;63.27;;
73206;Laerm;61415;55.702;37.460;2023-05-02T02:33:37;64.25;59.68;68.52;;
73206;Laerm;61415;55.702;37.460;2023-05-02T02:34:08;63.92;59.61;68.58;;
73206;Laerm;61415;55.702;37.460;2023-05-02T02:34:39;65.52;60.94;69.13;;
73206;Laerm;61415;55.702;37.460;2023-05-02T02:35:10;65.18;60.36;68.06;;
73206;Laerm;61415;55.702;37.460;2023-05-02T02:35:41;65.06;60.99;68.73;;
73206;Laerm;61415;55.702;37.460;2023-05-02T02:37:04;68.12;63.29;71.67;;
73206;Laerm;61415;55.702;37.460;2023-05-02T02:37:42;66.79;63.12;70.35;;
73206;Laerm;61415;55.702;37.460;2023-05-02T02:38:47;68.54;61.18;73.68;;
73206;Laerm;61415;55.702;37.460;2023-05-02T02:40:04;65.41;59.44;70.87;;
73206;Laerm;61415;55.702;37.460;2023-05-02T02:40:42;65.35;57.98;72.06;;
73206;Laerm;61415;55.702;37.460;2023-05-02T02:41:15;66.04;62.13;68.87;;
73206;Laerm;61415;55.702;37.460;2023-05-02T02:41:59;67.58;62.77;70.95;;
73206;Laerm;61415;55.702;37.460;2023-05-02T02:42:38;65.12;59.98;69.46;;
73206;Laerm;61415;55.702;37.460;2023-05-02T02:44:51;65.69;60.88;70.16;;
73206;Laerm;61415;55.702;37.460;2023-05-02T02:46:54;65.12;62.13;68.20;;
73206;Laerm;61415;55.702;37.460;2023-05-02T02:47:53;66.91;62.73;69.88;;
73206;Laerm;61415;55.702;37.460;2023-05-02T02:49:42;66.11;62.07;71.07;;
73206;Laerm;61415;55.702;37.460;2023-05-02T02:50:02;63.19;58.80;67.34;;
73206;Laerm;61415;55.702;37.460;2023-05-02T02:50:45;64.78;58.23;71.95;;
73206;Laerm;61415;55.702;37.460;2023-05-02T02:51:28;66.25;61.85;70.31;;
73206;Laerm;61415;55.702;37.460;2023-05-02T02:52:52;68.09;62.81;75.70;;
73206;Laerm;61415;55.702;37.460;2023-05-02T02:53:25;64.24;57.98;68.36;;
73206;Laerm;61415;55.702;37.460;2023-05-02T02:54:08;65.10;60.90;69.87;;
73206;Laerm;61415;55.702;37.460;2023-05-02T02:54:50;68.45;63.00;74.46;;
73206;Laerm;61415;55.702;37.460;2023-05-02T02:56:05;66.51;61.76;70.43;;
73206;Laerm;61415;55.702;37.460;2023-05-02T02:56:41;65.90;61.62;69.67;;
73206;Laerm;61415;55.702;37.460;2023-05-02T02:57:16;67.78;65.35;70.34;;
73206;Laerm;61415;55.702;37.460;2023-05-02T02:57:54;65.85;62.51;69.60;;
73206;Laerm;61415;55.702;37.460;2023-05-02T02:59:18;67.30;62.35;71.72;;
73206;Laerm;61415;55.702;37.460;2023-05-02T02:59:52;68.94;64.92;72.96;;
73206;Laerm;61415;55.702;37.460;2023-05-02T03:00:27;67.26;61.53;71.45;;
73206;Laerm;61415;55.702;37.460;2023-05-02T03:00:59;65.41;61.89;69.61;;
73206;Laerm;61415;55.702;37.460;2023-05-02T03:01:32;67.07;62.16;71.68;;
73206;Laerm;61415;55.702;37.460;2023-05-02T03:02:08;65.53;61.30;72.00;;
73206;Laerm;61415;55.702;37.460;2023-05-02T03:02:39;67.95;62.31;73.48;;
73206;Laerm;61415;55.702;37.460;2023-05-02T03:03:11;66.65;59.23;73.23;;
73206;Laerm;61415;55.702;37.460;2023-05-02T03:03:43;69.05;65.37;73.35;;
73206;Laerm;61415;55.702;37.460;2023-05-02T03:04:15;67.82;64.00;70.39;;
73206;Laerm;61415;55.702;37.460;2023-05-02T03:04:46;66.83;62.99;69.56;;
73206;Laerm;61415;55.702;37.460;2023-05-02T03:05:17;65.01;62.10;67.55;;
73206;Laerm;61415;55.702;37.460;2023-05-02T03:05:48;65.56;60.57;69.18;;
73206;Laerm;61415;55.702;37.460;2023-05-02T03:06:20;67.88;64.34;70.90;;
73206;Laerm;61415;55.702;37.460;2023-05-02T03:06:51;65.93;63.30;68.97;;
73206;Laerm;61415;55.702;37.460;2023-05-02T03:07:21;65.46;62.28;68.11;;
73206;Laerm;61415;55.702;37.460;2023-05-02T03:07:52;64.23;60.97;68.31;;
73206;Laerm;61415;55.702;37.460;2023-05-02T03:08:23;68.80;63.98;72.01;;
73206;Laerm;61415;55.702;37.460;2023-05-02T03:08:54;68.55;65.50;71.35;;
73206;Laerm;61415;55.702;37.460;2023-05-02T03:09:26;68.03;64.78;70.76;;
73206;Laerm;61415;55.702;37.460;2023-05-02T03:10:01;65.72;61.01;69.88;;
73206;Laerm;61415;55.702;37.460;2023-05-02T03:10:32;67.62;59.13;71.72;;
73206;Laerm;61415;55.702;37.460;2023-05-02T03:11:03;68.40;65.66;72.63;;
73206;Laerm;61415;55.702;37.460;2023-05-02T03:11:34;68.37;65.02;71.33;;
73206;Laerm;61415;55.702;37.460;2023-05-02T03:12:04;66.98;63.45;70.52;;
73206;Laerm;61415;55.702;37.460;2023-05-02T03:12:35;65.68;62.03;68.41;;
73206;Laerm;61415;55.702;37.460;2023-05-02T03:13:06;68.52;63.77;71.68;;
73206;Laerm;61415;55.702;37.460;2023-05-02T03:13:37;68.80;65.43;72.31;;
73206;Laerm;61415;55.702;37.460;2023-05-02T03:14:07;68.16;63.80;71.33;;
73206;Laerm;61415;55.702;37.460;2023-05-02T03:14:38;66.39;61.55;80.79;;
73206;Laerm;61415;55.702;37.460;2023-05-02T03:16:59;66.28;62.95;69.59;;
73206;Laerm;61415;55.702;37.460;2023-05-02T03:17:30;68.48;64.28;71.88;;
73206;Laerm;61415;55.702;37.460;2023-05-02T03:18:01;68.45;63.87;72.41;;
73206;Laerm;61415;55.702;37.460;2023-05-02T03:18:32;66.94;62.49;70.24;;
73206;Laerm;61415;55.702;37.460;2023-05-02T03:19:03;65.04;61.99;67.57;;
73206;Laerm;61415;55.702;37.460;2023-05-02T03:19:34;65.69;62.07;69.02;;
73206;Laerm;61415;55.702;37.460;2023-05-02T03:20:05;68.96;64.62;71.60;;
73206;Laerm;61415;55.702;37.460;2023-05-02T03:20:37;67.22;63.04;70.97;;